Time;durP1;ratioP1;P1;durP2;ratioP2;P2;SDS_P1;SDS_P2;PMS_P1;PMS_P2;Temp;Humidity;BMP_temperature;BMP_pressure;BME280_temperature;BME280_humidity;BME280_pressure;Samples;Min_cycle;Max_cycle;Signal;HPM_P1;HPM_P2
2024/02/03 00:02:18;;;;;;;4.00;3.00;;;;;;;11.15;45.24;100036.25;7002500;28;21533;-79
2024/02/03 00:05:40;;;;;;;3.33;3.00;;;;;;;11.19;44.92;100045.63;6989015;28;20206;-80
2024/02/03 00:09:02;;;;;;;3.67;2.87;;;;;;;11.52;44.17;100037.09;6991969;28;20229;-80
2024/02/03 00:12:28;;;;;;;2.77;2.57;;;;;;;11.58;43.87;100036.41;7000159;28;20197;-80
2024/02/03 00:15:51;;;;;;;3.40;3.10;;;;;;;10.84;45.32;100038.09;7000754;28;20206;-80
2024/02/03 00:19:13;;;;;;;3.50;2.77;;;;;;;10.87;46.23;100026.97;7017747;28;20229;-80
2024/02/03 00:22:34;;;;;;;3.03;2.83;;;;;;;10.61;46.96;100035.34;7023084;28;20228;-80
2024/02/03 00:25:56;;;;;;;2.70;2.50;;;;;;;10.27;48.00;100037.50;7030325;28;20213;-79
2024/02/03 00:29:18;;;;;;;2.90;2.70;;;;;;;10.05;48.73;100032.00;7011640;28;20603;-80
2024/02/03 00:32:41;;;;;;;3.77;3.10;;;;;;;10.23;48.59;100028.09;7021685;28;20552;-79
2024/02/03 00:36:04;;;;;;;3.47;3.00;;;;;;;9.92;49.52;100040.56;7000286;28;20206;-80
2024/02/03 00:39:25;;;;;;;2.93;2.70;;;;;;;9.88;48.81;100041.09;6999352;28;20372;-80
2024/02/03 00:42:49;;;;;;;2.80;2.60;;;;;;;9.62;49.62;100037.78;6999687;28;20257;-80
2024/02/03 00:46:11;;;;;;;3.23;2.93;;;;;;;9.44;50.22;100029.84;6995949;28;20578;-80
2024/02/03 00:49:34;;;;;;;5.10;3.40;;;;;;;9.13;51.19;100021.75;6971617;28;20271;-80
2024/02/03 00:52:56;;;;;;;3.23;2.93;;;;;;;8.82;52.19;100034.13;6972189;28;20210;-79
2024/02/03 00:56:17;;;;;;;3.00;2.80;;;;;;;8.95;52.02;100027.28;6986865;28;20209;-79
2024/02/03 00:59:39;;;;;;;3.27;2.60;;;;;;;8.93;51.66;100020.38;6998916;28;20221;-79
2024/02/03 01:03:01;;;;;;;3.10;2.80;;;;;;;8.74;52.51;100040.34;6999091;28;20224;-79
2024/02/03 01:06:24;;;;;;;3.10;2.90;;;;;;;8.65;52.44;100029.69;6979469;28;20206;-79
2024/02/03 01:09:45;;;;;;;3.00;2.80;;;;;;;8.73;52.56;100019.00;6971629;28;20229;-80
2024/02/03 01:13:08;;;;;;;3.00;2.80;;;;;;;8.75;52.44;100025.88;6971931;28;20212;-79
2024/02/03 01:16:30;;;;;;;2.83;2.63;;;;;;;8.52;53.59;100032.00;6972030;28;20205;-79
2024/02/03 01:19:53;;;;;;;3.00;2.80;;;;;;;8.63;53.79;100037.09;6998797;28;20235;-79
2024/02/03 01:23:17;;;;;;;4.30;2.80;;;;;;;8.50;54.04;100042.09;6998422;28;20592;-79
2024/02/03 01:26:39;;;;;;;3.00;2.80;;;;;;;8.57;53.40;100048.50;6998433;28;20677;-79
2024/02/03 01:30:00;;;;;;;2.93;2.73;;;;;;;8.96;52.44;100031.63;7002366;28;20682;-79
2024/02/03 01:33:22;;;;;;;2.93;2.73;;;;;;;9.01;51.52;100037.38;7013044;28;20212;-78
2024/02/03 01:36:44;;;;;;;3.77;2.73;;;;;;;8.88;52.12;100034.31;7020217;28;20689;-79
2024/02/03 01:40:08;;;;;;;4.37;2.77;;;;;;;8.75;51.64;100042.03;7009768;28;20243;-79
2024/02/03 01:43:30;;;;;;;3.00;2.70;;;;;;;8.81;52.07;100043.19;6989399;28;20596;-78
2024/02/03 01:46:51;;;;;;;3.77;2.60;;;;;;;8.64;52.33;100047.69;6998444;28;20213;-78
2024/02/03 01:50:13;;;;;;;2.87;2.57;;;;;;;8.35;52.77;100038.31;6997663;28;20287;-79
2024/02/03 01:53:35;;;;;;;2.60;2.40;;;;;;;8.48;52.69;100028.00;6997909;28;20621;-79
2024/02/03 01:56:59;;;;;;;2.90;2.60;;;;;;;8.10;52.74;100033.81;6997335;28;20213;-79
2024/02/03 02:00:20;;;;;;;2.57;2.43;;;;;;;7.85;54.03;100030.13;6997585;28;20578;-78
2024/02/03 02:03:42;;;;;;;3.10;2.83;;;;;;;8.53;53.46;100012.19;6980507;28;20271;-79
2024/02/03 02:07:04;;;;;;;2.93;2.73;;;;;;;8.26;53.40;100028.56;6996733;28;20215;-79
2024/02/03 02:10:26;;;;;;;4.43;2.97;;;;;;;8.18;54.18;100021.25;6975490;28;20216;-79
2024/02/03 02:13:49;;;;;;;2.90;2.70;;;;;;;8.26;52.77;100034.75;6997047;28;20203;-80
2024/02/03 02:17:11;;;;;;;5.57;3.00;;;;;;;8.22;53.70;100036.09;7016028;28;20712;-80
2024/02/03 02:20:35;;;;;;;2.93;2.73;;;;;;;8.01;53.89;100034.78;7025132;28;20237;-79
2024/02/03 02:23:58;;;;;;;2.23;2.13;;;;;;;8.23;53.21;100037.78;7000554;28;20271;-79
2024/02/03 02:27:19;;;;;;;2.80;2.60;;;;;;;8.03;52.77;100039.00;7002628;28;20219;-79
2024/02/03 02:30:41;;;;;;;4.93;2.70;;;;;;;8.17;53.27;100026.78;7025140;28;20251;-79
2024/02/03 02:34:02;;;;;;;2.67;2.47;;;;;;;7.80;53.84;100040.53;7015876;28;20205;-79
2024/02/03 02:37:26;;;;;;;3.20;2.60;;;;;;;7.38;54.59;100034.13;6997109;28;20218;-79
2024/02/03 02:40:49;;;;;;;3.27;2.97;;;;;;;7.17;55.88;100033.63;6989764;28;20232;-79
2024/02/03 02:44:11;;;;;;;3.40;3.10;;;;;;;7.66;55.16;100037.56;7003442;28;20236;-80
2024/02/03 02:47:35;;;;;;;3.40;3.10;;;;;;;7.25;54.95;100024.81;7024461;28;20210;-80
2024/02/03 02:50:57;;;;;;;3.03;2.83;;;;;;;7.70;53.59;100012.06;7024273;28;20221;-80
2024/02/03 02:54:20;;;;;;;2.80;2.60;;;;;;;7.11;55.17;100022.66;7024851;28;20203;-80
2024/02/03 02:57:41;;;;;;;3.43;2.80;;;;;;;7.31;55.07;99998.19;7024167;28;20219;-79
2024/02/03 03:01:03;;;;;;;3.03;2.80;;;;;;;7.43;54.58;100020.28;7007538;28;20234;-79
2024/02/03 03:04:25;;;;;;;2.87;2.67;;;;;;;7.39;54.92;100022.44;6996134;28;20811;-79
2024/02/03 03:07:46;;;;;;;3.37;3.00;;;;;;;6.91;56.37;100023.81;6994009;28;20213;-79
2024/02/03 03:11:12;;;;;;;3.57;2.80;;;;;;;7.21;55.69;100015.38;6973568;28;20631;-79
2024/02/03 03:14:33;;;;;;;3.07;2.67;;;;;;;7.43;54.72;100010.38;6970489;28;20216;-79
2024/02/03 03:17:55;;;;;;;2.67;2.50;;;;;;;7.52;54.62;100022.84;6995768;28;20250;-79
2024/02/03 03:21:16;;;;;;;3.27;2.90;;;;;;;7.59;54.51;100031.09;6996064;28;20227;-79
2024/02/03 03:24:38;;;;;;;3.07;2.87;;;;;;;7.27;53.77;100012.94;7001576;28;20243;-79
2024/02/03 03:28:01;;;;;;;2.70;2.50;;;;;;;7.09;55.49;100033.56;7015722;28;20682;-80
2024/02/03 03:31:22;;;;;;;2.83;2.63;;;;;;;7.17;54.55;100038.13;7030291;28;20235;-79
2024/02/03 03:34:44;;;;;;;3.00;2.80;;;;;;;6.76;55.59;100023.50;7029456;28;20275;-80
2024/02/03 03:38:06;;;;;;;2.80;2.60;;;;;;;6.31;57.45;100038.69;7029030;28;20305;-80
2024/02/03 03:41:28;;;;;;;3.10;2.83;;;;;;;6.61;56.75;100018.81;7021146;28;20224;-79
2024/02/03 03:44:51;;;;;;;2.70;2.50;;;;;;;7.01;56.21;100013.88;7024240;28;20306;-79
2024/02/03 03:48:12;;;;;;;2.80;2.60;;;;;;;7.14;55.27;100015.16;7007884;28;20248;-79
2024/02/03 03:51:34;;;;;;;3.20;3.00;;;;;;;6.74;55.98;100011.25;7011397;28;20702;-79
2024/02/03 03:54:55;;;;;;;2.83;2.63;;;;;;;6.93;56.66;100013.78;7001510;28;20562;-79
2024/02/03 03:58:17;;;;;;;2.90;2.70;;;;;;;6.87;55.95;100007.19;7010679;28;20215;-79
2024/02/03 04:01:40;;;;;;;2.80;2.60;;;;;;;7.16;56.06;100015.84;7028596;28;20315;-80
2024/02/03 04:05:01;;;;;;;3.00;2.80;;;;;;;7.01;56.19;100032.66;7028848;28;20364;-79
2024/02/03 04:08:22;;;;;;;4.30;2.80;;;;;;;6.94;56.16;100029.72;7024029;28;20303;-80
2024/02/03 04:11:44;;;;;;;3.10;2.90;;;;;;;6.81;56.60;100031.06;6975685;28;20449;-79
2024/02/03 04:15:07;;;;;;;3.10;2.80;;;;;;;7.27;55.64;100031.72;7000681;28;20660;-79
2024/02/03 04:18:30;;;;;;;4.10;3.00;;;;;;;6.76;55.57;100025.31;7000295;28;20572;-80
2024/02/03 04:21:51;;;;;;;2.80;2.60;;;;;;;6.96;55.63;100033.06;7000741;28;20311;-79
2024/02/03 04:25:13;;;;;;;3.00;2.80;;;;;;;6.92;56.20;100047.81;7000566;28;20366;-79
2024/02/03 04:28:34;;;;;;;2.70;2.50;;;;;;;7.07;55.71;100046.25;6984223;28;20247;-79
2024/02/03 04:31:56;;;;;;;3.17;2.87;;;;;;;6.99;54.71;100043.50;7000182;28;20214;-80
2024/02/03 04:35:19;;;;;;;2.93;2.73;;;;;;;6.54;56.06;100040.00;7000624;28;20267;-79
2024/02/03 04:38:40;;;;;;;3.20;2.90;;;;;;;6.68;55.96;100042.19;6972336;28;20208;-79
2024/02/03 04:42:02;;;;;;;2.77;2.57;;;;;;;6.62;55.93;100044.59;6972778;28;20694;-80
2024/02/03 04:45:23;;;;;;;3.20;3.00;;;;;;;6.66;55.76;100052.19;6990620;28;20829;-79
2024/02/03 04:48:45;;;;;;;3.63;3.33;;;;;;;6.85;55.83;100044.00;7011438;28;20240;-79
2024/02/03 04:52:07;;;;;;;3.13;2.93;;;;;;;6.58;55.61;100035.16;7027954;28;20356;-79
2024/02/03 04:55:29;;;;;;;4.07;2.60;;;;;;;6.61;55.99;100042.94;7028763;28;20268;-79
2024/02/03 04:58:51;;;;;;;2.80;2.63;;;;;;;6.40;56.29;100053.03;7034319;28;20205;-80
2024/02/03 05:02:12;;;;;;;5.27;3.23;;;;;;;6.63;55.95;100044.47;7025747;28;20213;-79
2024/02/03 05:05:34;;;;;;;3.40;3.20;;;;;;;6.42;57.01;100045.72;6999596;28;20270;-79
2024/02/03 05:08:58;;;;;;;3.17;2.90;;;;;;;6.54;56.77;100037.31;6998409;28;20317;-79
2024/02/03 05:12:20;;;;;;;3.23;3.03;;;;;;;6.38;56.49;100041.63;7000616;28;20211;-79
2024/02/03 05:15:41;;;;;;;3.40;3.17;;;;;;;6.47;57.13;100054.97;7017788;28;20235;-79
2024/02/03 05:19:04;;;;;;;3.10;2.90;;;;;;;6.16;57.71;100023.28;7006698;28;20218;-80
2024/02/03 05:22:25;;;;;;;3.70;3.40;;;;;;;6.67;57.51;100059.22;6971668;28;20208;-79
2024/02/03 05:25:48;;;;;;;3.40;3.20;;;;;;;6.75;56.84;100063.84;6995097;28;20297;-80
2024/02/03 05:29:10;;;;;;;3.47;3.17;;;;;;;6.66;56.44;100060.22;6998466;28;20314;-80
2024/02/03 05:32:31;;;;;;;3.53;2.90;;;;;;;6.71;56.56;100057.13;6998624;28;20241;-80
2024/02/03 05:35:53;;;;;;;3.77;3.00;;;;;;;6.60;56.95;100044.75;6998349;28;20270;-80
2024/02/03 05:39:14;;;;;;;2.80;2.60;;;;;;;6.68;55.55;100055.59;6997558;28;20341;-80
2024/02/03 05:42:37;;;;;;;3.30;3.03;;;;;;;6.58;55.88;100053.94;6997854;28;20279;-80
2024/02/03 05:45:59;;;;;;;3.57;3.27;;;;;;;6.55;55.83;100062.28;6997069;28;20232;-79
2024/02/03 05:49:20;;;;;;;4.23;3.93;;;;;;;6.36;56.56;100052.50;7014746;28;20275;-80
2024/02/03 05:52:41;;;;;;;3.67;3.37;;;;;;;5.95;57.98;100074.34;7021203;28;20782;-80
2024/02/03 05:56:04;;;;;;;3.50;3.20;;;;;;;6.03;58.12;100057.56;6969555;28;20358;-79
2024/02/03 05:59:26;;;;;;;3.73;3.23;;;;;;;6.21;57.88;100053.13;6969690;28;20320;-79
2024/02/03 06:02:48;;;;;;;3.70;3.40;;;;;;;6.31;57.78;100070.84;6970022;28;20247;-80
2024/02/03 06:06:10;;;;;;;3.07;2.87;;;;;;;6.05;58.26;100077.00;6969797;28;20289;-80
2024/02/03 06:09:31;;;;;;;4.07;3.77;;;;;;;6.00;57.98;100082.78;6969027;28;20779;-80
2024/02/03 06:12:53;;;;;;;4.07;3.30;;;;;;;6.32;57.92;100060.97;6990251;28;20207;-80
2024/02/03 06:16:16;;;;;;;3.93;3.43;;;;;;;5.89;57.72;100061.56;6999040;28;20200;-80
2024/02/03 06:19:37;;;;;;;11.73;10.50;;;;;;;6.18;57.74;100069.50;6997259;28;20236;-80
2024/02/03 06:22:59;;;;;;;3.37;3.07;;;;;;;5.97;58.21;100080.44;6996738;28;20239;-79
2024/02/03 06:26:21;;;;;;;3.60;3.30;;;;;;;6.10;58.93;100072.91;7010621;28;20333;-78
2024/02/03 06:29:42;;;;;;;3.40;3.10;;;;;;;6.22;58.31;100071.75;6997932;28;20230;-82
2024/02/03 06:33:05;;;;;;;3.83;3.53;;;;;;;6.42;58.31;100067.97;6986112;28;20213;-79
2024/02/03 06:36:27;;;;;;;4.33;3.53;;;;;;;6.55;57.90;100063.09;6989387;28;20296;-79
2024/02/03 06:39:48;;;;;;;3.97;3.67;;;;;;;6.46;57.79;100066.69;7012775;28;20717;-79
2024/02/03 06:43:10;;;;;;;3.87;3.47;;;;;;;6.28;57.46;100071.16;6997772;28;20314;-81
2024/02/03 06:46:31;;;;;;;5.80;5.27;;;;;;;5.99;59.91;100064.19;6995081;28;20237;-79
2024/02/03 06:49:54;;;;;;;6.20;5.27;;;;;;;6.70;60.61;100068.81;6982794;28;20670;-78
2024/02/03 06:53:16;;;;;;;7.60;5.50;;;;;;;7.02;60.26;100074.53;6982225;28;20691;-79
2024/02/03 06:56:38;;;;;;;6.13;5.47;;;;;;;7.26;60.19;100072.09;6972333;28;20352;-80
2024/02/03 06:59:59;;;;;;;8.27;5.37;;;;;;;7.33;58.33;100057.06;6983775;28;20258;-79
2024/02/03 07:03:21;;;;;;;8.73;6.93;;;;;;;6.94;58.51;100077.13;7003305;28;20364;-79
2024/02/03 07:06:44;;;;;;;9.37;7.10;;;;;;;7.13;57.99;100063.59;7002519;28;20846;-80
2024/02/03 07:10:07;;;;;;;11.43;9.67;;;;;;;6.86;62.08;100085.94;7003140;28;20309;-79
2024/02/03 07:13:28;;;;;;;8.40;7.50;;;;;;;7.54;61.34;100069.16;7002900;28;20686;-79
2024/02/03 07:16:50;;;;;;;10.23;7.33;;;;;;;7.43;59.93;100079.31;7009371;28;20561;-79
2024/02/03 07:20:12;;;;;;;11.50;9.33;;;;;;;7.67;60.79;100083.00;6998233;28;20775;-79
2024/02/03 07:23:35;;;;;;;11.43;9.27;;;;;;;7.84;62.38;100081.31;6993316;28;20225;-79
2024/02/03 07:26:57;;;;;;;11.77;8.60;;;;;;;8.09;59.83;100083.16;6999925;28;20246;-83
2024/02/03 07:30:18;;;;;;;12.33;8.53;;;;;;;8.31;61.29;100082.66;7006610;28;20724;-80
2024/02/03 07:33:40;;;;;;;10.93;8.33;;;;;;;8.69;61.96;100069.56;6992366;28;20697;-80
2024/02/03 07:37:01;;;;;;;11.07;7.97;;;;;;;8.31;59.40;100075.41;6996991;28;20293;-80
2024/02/03 07:40:24;;;;;;;8.77;7.13;;;;;;;8.20;59.06;100067.63;7029535;28;20233;-80
2024/02/03 07:43:46;;;;;;;9.80;7.10;;;;;;;8.31;58.81;100066.53;7017817;28;20719;-79
2024/02/03 07:47:07;;;;;;;12.70;9.23;;;;;;;8.59;57.49;100051.84;6990420;28;20294;-80
2024/02/03 07:50:29;;;;;;;15.63;9.00;;;;;;;8.58;58.63;100069.84;7002374;28;20299;-79
2024/02/03 07:53:50;;;;;;;12.77;8.83;;;;;;;8.62;60.57;100060.47;6979966;28;20231;-79
2024/02/03 07:57:13;;;;;;;15.87;11.07;;;;;;;8.76;61.45;100062.53;6987323;28;20233;-80
2024/02/03 08:00:34;;;;;;;11.00;9.57;;;;;;;9.26;59.63;100060.59;7000935;28;20312;-80
2024/02/03 08:03:56;;;;;;;11.83;9.17;;;;;;;9.39;59.38;100060.97;7001111;28;20365;-79
2024/02/03 08:07:17;;;;;;;9.60;7.83;;;;;;;9.45;58.88;100063.81;6998581;28;20216;-79
2024/02/03 08:10:39;;;;;;;10.80;8.53;;;;;;;9.55;58.44;100056.44;6997085;28;20238;-78
2024/02/03 08:14:02;;;;;;;8.87;6.93;;;;;;;9.48;58.56;100068.03;6976139;28;20237;-78
2024/02/03 08:17:23;;;;;;;13.97;8.87;;;;;;;9.42;56.30;100058.78;6998333;28;20288;-78
2024/02/03 08:20:45;;;;;;;12.60;10.23;;;;;;;9.46;57.14;100062.81;6999888;28;20255;-80
2024/02/03 08:24:06;;;;;;;14.13;10.23;;;;;;;9.52;57.38;100064.84;7001502;28;20253;-80
2024/02/03 08:27:28;;;;;;;11.93;9.60;;;;;;;9.83;57.73;100067.69;7005404;28;20287;-80
2024/02/03 08:30:51;;;;;;;17.87;12.40;;;;;;;10.24;57.66;100070.19;6979315;28;20398;-78
2024/02/03 08:34:12;;;;;;;18.83;13.43;;;;;;;10.29;56.71;100064.28;6989238;28;20208;-81
2024/02/03 08:37:34;;;;;;;24.30;15.93;;;;;;;10.28;57.15;100063.44;7001717;28;20304;-78
2024/02/03 08:40:55;;;;;;;20.07;14.60;;;;;;;10.41;57.37;100063.75;6992284;28;20234;-80
2024/02/03 08:44:17;;;;;;;23.63;15.67;;;;;;;10.64;56.39;100056.56;6976473;28;20304;-79
2024/02/03 08:47:40;;;;;;;25.00;17.63;;;;;;;10.54;57.02;100055.94;6989600;28;20205;-78
2024/02/03 08:51:02;;;;;;;22.17;15.93;;;;;;;10.49;57.61;100046.69;6998368;28;20222;-79
2024/02/03 08:54:24;;;;;;;20.43;14.70;;;;;;;10.85;56.93;100064.91;6998721;28;20241;-79
2024/02/03 08:57:45;;;;;;;15.33;12.50;;;;;;;10.84;56.69;100071.31;6993053;28;20849;-78
2024/02/03 09:01:07;;;;;;;16.67;12.30;;;;;;;10.51;58.06;100069.75;6994292;28;20224;-79
2024/02/03 09:04:29;;;;;;;14.93;11.20;;;;;;;10.89;57.61;100077.03;7026200;28;20315;-78
2024/02/03 09:07:52;;;;;;;16.10;11.67;;;;;;;11.00;57.98;100067.69;7025516;28;20208;-78
2024/02/03 09:11:13;;;;;;;12.83;10.93;;;;;;;10.81;59.69;100071.66;7025977;28;20859;-79
2024/02/03 09:14:35;;;;;;;12.13;8.80;;;;;;;11.39;59.24;100076.56;7009848;28;20243;-78
2024/02/03 09:17:57;;;;;;;11.40;8.93;;;;;;;10.99;61.99;100090.31;6996558;28;20201;-79
2024/02/03 09:21:19;;;;;;;11.57;9.30;;;;;;;11.21;61.89;100084.13;6997050;28;20222;-79
2024/02/03 09:24:41;;;;;;;13.00;8.50;;;;;;;11.28;61.68;100085.06;6994507;28;20267;-77
2024/02/03 09:28:03;;;;;;;8.60;7.30;;;;;;;11.38;61.49;100083.81;6996708;28;20346;-79
2024/02/03 09:31:24;;;;;;;10.77;7.17;;;;;;;11.38;62.05;100083.81;7006897;28;20349;-81
2024/02/03 09:34:49;;;;;;;7.23;6.53;;;;;;;11.42;62.04;100092.41;7009001;28;20249;-81
2024/02/03 09:38:12;;;;;;;7.90;7.10;;;;;;;11.59;61.81;100091.28;6998520;28;20250;-79
2024/02/03 09:41:34;;;;;;;7.63;6.83;;;;;;;11.79;61.14;100085.22;7017216;28;20320;-80
2024/02/03 09:44:55;;;;;;;7.33;6.50;;;;;;;11.79;61.46;100078.97;7025759;28;20228;-80
2024/02/03 09:48:17;;;;;;;10.03;7.50;;;;;;;11.74;61.37;100076.81;7005741;28;20292;-79
2024/02/03 09:51:40;;;;;;;8.27;6.80;;;;;;;11.67;61.96;100091.22;6998271;28;20278;-82
2024/02/03 09:55:05;;;;;;;8.90;7.17;;;;;;;11.91;61.52;100077.50;6997395;28;20229;-81
2024/02/03 09:58:26;;;;;;;8.17;6.73;;;;;;;12.10;61.33;100091.34;6998952;28;20736;-79
2024/02/03 10:01:48;;;;;;;7.77;7.00;;;;;;;12.09;60.92;100097.78;6990610;28;20221;-78
2024/02/03 10:05:09;;;;;;;7.93;7.00;;;;;;;11.92;61.64;100098.13;7023571;28;20277;-78
2024/02/03 10:08:31;;;;;;;7.60;6.40;;;;;;;12.22;61.24;100099.88;7023943;28;20216;-78
2024/02/03 10:11:54;;;;;;;6.37;5.77;;;;;;;12.24;60.51;100089.69;7003199;28;20316;-77
2024/02/03 10:15:15;;;;;;;7.90;6.50;;;;;;;12.08;60.79;100090.69;6996446;28;20347;-78
2024/02/03 10:18:37;;;;;;;6.80;5.77;;;;;;;11.61;61.83;100086.53;6989542;28;20292;-78
2024/02/03 10:21:58;;;;;;;10.77;6.50;;;;;;;12.16;60.35;100084.38;6997376;28;20212;-77
2024/02/03 10:25:24;;;;;;;9.00;5.90;;;;;;;11.83;61.40;100078.44;6986939;28;20291;-81
2024/02/03 10:28:47;;;;;;;15.80;6.60;;;;;;;12.25;59.67;100075.16;6970998;28;20197;-81
2024/02/03 10:32:09;;;;;;;10.43;6.87;;;;;;;12.05;60.47;100091.06;6971347;28;20237;-80
2024/02/03 10:35:32;;;;;;;7.27;6.57;;;;;;;12.06;59.96;100072.97;6972145;28;20210;-80
2024/02/03 10:38:53;;;;;;;8.97;6.90;;;;;;;12.40;59.87;100076.84;6997156;28;20294;-80
2024/02/03 10:42:20;;;;;;;6.40;5.67;;;;;;;12.47;58.94;100058.84;6997992;28;20661;-80
2024/02/03 10:45:44;;;;;;;7.23;6.20;;;;;;;12.44;59.81;100052.94;6996239;28;20741;-80
2024/02/03 10:49:10;;;;;;;6.97;5.90;;;;;;;12.76;59.45;100047.16;6997866;28;20355;-81
2024/02/03 10:52:32;;;;;;;8.13;6.43;;;;;;;12.91;58.67;100061.50;6997189;28;20637;-80
2024/02/03 10:55:55;;;;;;;6.47;5.13;;;;;;;12.88;57.50;100034.81;6993597;28;20294;-80
2024/02/03 10:59:19;;;;;;;6.10;5.40;;;;;;;13.24;57.09;100041.94;6997873;28;20228;-81
2024/02/03 11:02:52;;;;;;;5.57;5.07;;;;;;;13.14;56.77;100043.25;6998969;28;20244;-80
2024/02/03 11:06:13;;;;;;;5.80;5.20;;;;;;;13.18;56.53;100026.47;6998111;28;20704;-80
2024/02/03 11:09:35;;;;;;;7.07;4.93;;;;;;;13.49;55.94;100028.84;6996087;28;20225;-79
2024/02/03 11:13:01;;;;;;;5.50;5.00;;;;;;;13.34;55.48;100028.91;6995212;28;20300;-80
2024/02/03 11:16:23;;;;;;;5.67;5.20;;;;;;;13.58;55.94;100017.69;6994465;28;20232;-80
2024/02/03 11:19:46;;;;;;;5.43;4.93;;;;;;;13.63;55.56;100034.19;6990486;28;20312;-80
2024/02/03 11:23:12;;;;;;;6.80;5.53;;;;;;;13.23;56.28;100031.31;6996511;28;20749;-79
2024/02/03 11:26:34;;;;;;;5.83;5.27;;;;;;;13.90;54.79;100022.56;6989369;28;20206;-80
2024/02/03 11:30:03;;;;;;;5.33;4.40;;;;;;;13.73;54.15;100014.88;6994366;28;20785;-80
2024/02/03 11:33:25;;;;;;;7.63;6.20;;;;;;;13.84;53.48;99988.09;6991515;28;20216;-80
2024/02/03 11:36:48;;;;;;;4.97;4.47;;;;;;;13.82;53.58;100005.59;6993669;28;20231;-80
2024/02/03 11:40:11;;;;;;;4.70;4.20;;;;;;;14.31;52.70;100000.94;6997945;28;20762;-80
2024/02/03 11:43:32;;;;;;;4.50;4.10;;;;;;;14.47;52.14;99997.91;6999976;28;20281;-81
2024/02/03 11:46:54;;;;;;;4.70;4.30;;;;;;;14.12;52.85;100001.63;7006906;28;20768;-81
2024/02/03 11:50:15;;;;;;;4.70;4.17;;;;;;;14.15;52.58;99998.53;7002042;28;20321;-81
2024/02/03 11:53:38;;;;;;;5.20;4.30;;;;;;;13.86;53.00;99993.31;7002982;28;20207;-80
2024/02/03 11:57:00;;;;;;;5.07;4.57;;;;;;;13.94;52.91;99990.47;6997400;28;20661;-81
2024/02/03 12:00:21;;;;;;;4.60;4.20;;;;;;;14.35;51.97;100002.22;6979483;28;20320;-81
2024/02/03 12:03:43;;;;;;;4.80;4.30;;;;;;;14.17;52.64;99999.16;7000900;28;20200;-81
2024/02/03 12:07:05;;;;;;;4.20;3.80;;;;;;;14.86;50.65;99990.78;7000834;28;20691;-81
2024/02/03 12:10:28;;;;;;;4.17;3.77;;;;;;;14.64;50.54;99988.41;7000793;28;20227;-81
2024/02/03 12:13:50;;;;;;;10.10;6.00;;;;;;;14.64;51.10;99989.22;6993498;28;20221;-82
2024/02/03 12:17:11;;;;;;;5.70;5.10;;;;;;;14.80;50.34;99983.44;7002083;28;20340;-81
2024/02/03 12:20:33;;;;;;;3.93;3.50;;;;;;;14.59;50.41;99978.16;6999799;28;20719;-81
2024/02/03 12:23:55;;;;;;;4.37;3.90;;;;;;;14.58;50.03;99989.19;7000781;28;20308;-81
2024/02/03 12:27:20;;;;;;;3.63;3.33;;;;;;;14.13;51.24;99973.47;6999949;28;20830;-81
2024/02/03 12:30:41;;;;;;;5.17;3.27;;;;;;;14.44;50.73;99979.31;7000451;28;20265;-82
2024/02/03 12:34:03;;;;;;;3.37;3.07;;;;;;;14.42;49.74;99949.69;6997030;28;20204;-81
2024/02/03 12:37:28;;;;;;;2.97;2.67;;;;;;;14.97;49.39;99965.75;6998116;28;20215;-81
2024/02/03 12:40:49;;;;;;;4.70;4.17;;;;;;;14.34;50.97;99962.56;7001811;28;20252;-81
2024/02/03 12:44:12;;;;;;;3.53;3.00;;;;;;;14.40;50.29;99945.50;7007951;28;20234;-81
2024/02/03 12:47:33;;;;;;;2.63;2.43;;;;;;;14.63;49.20;99938.69;7002657;28;20317;-81
2024/02/03 12:50:56;;;;;;;2.80;2.60;;;;;;;14.74;49.26;99942.72;7002184;28;20233;-81
2024/02/03 12:54:17;;;;;;;2.73;2.53;;;;;;;14.47;50.40;99952.63;6998967;28;20206;-81
2024/02/03 12:57:39;;;;;;;3.77;3.00;;;;;;;15.08;49.00;99948.84;6999289;28;20275;-82
2024/02/03 13:01:03;;;;;;;2.87;2.67;;;;;;;14.99;48.95;99941.09;6986002;28;20222;-82
2024/02/03 13:04:24;;;;;;;2.07;1.93;;;;;;;14.46;48.98;99921.06;6995825;28;20205;-80
2024/02/03 13:07:46;;;;;;;1.50;1.50;;;;;;;14.46;49.22;99942.78;7000204;28;20203;-79
2024/02/03 13:11:07;;;;;;;1.40;1.40;;;;;;;14.65;48.98;99947.47;6991347;28;20695;-80
2024/02/03 13:14:29;;;;;;;2.43;2.23;;;;;;;14.89;48.53;99943.38;6999422;28;20335;-80
2024/02/03 13:17:52;;;;;;;1.60;1.50;;;;;;;14.82;48.27;99918.06;6999120;28;20255;-80
2024/02/03 13:21:13;;;;;;;2.00;1.60;;;;;;;14.77;48.80;99924.13;6990528;28;20243;-80
2024/02/03 13:24:35;;;;;;;1.60;1.50;;;;;;;14.83;48.63;99938.75;6997270;28;20563;-80
2024/02/03 13:27:57;;;;;;;2.00;1.43;;;;;;;15.03;48.27;99926.88;7005199;28;20211;-80
2024/02/03 13:31:23;;;;;;;2.20;1.40;;;;;;;14.32;49.59;99926.66;7008262;28;20226;-80
2024/02/03 13:34:46;;;;;;;1.60;1.60;;;;;;;14.75;48.61;99936.22;7003045;28;20205;-79
2024/02/03 13:38:07;;;;;;;1.97;1.87;;;;;;;14.79;48.98;99937.47;7006283;28;20905;-80
2024/02/03 13:41:29;;;;;;;1.30;1.30;;;;;;;14.82;48.85;99927.03;7000209;28;20231;-80
2024/02/03 13:44:50;;;;;;;1.80;1.70;;;;;;;14.53;48.86;99900.25;7006399;28;20327;-79
2024/02/03 13:48:12;;;;;;;10.30;7.73;;;;;;;14.71;49.16;99932.25;7008931;28;20290;-80
2024/02/03 13:51:35;;;;;;;2.33;2.23;;;;;;;14.76;49.49;99938.72;7009152;28;20780;-79
2024/02/03 13:54:57;;;;;;;2.00;1.90;;;;;;;14.63;49.73;99943.28;7010016;28;20295;-80
2024/02/03 13:58:18;;;;;;;2.57;2.40;;;;;;;14.65;49.74;99933.91;7009375;28;20665;-80
2024/02/03 14:01:40;;;;;;;1.73;1.63;;;;;;;14.88;48.85;99925.41;7014454;28;20221;-83
2024/02/03 14:05:02;;;;;;;1.57;1.47;;;;;;;14.33;50.21;99931.06;7000276;28;20225;-82
2024/02/03 14:08:25;;;;;;;1.20;1.20;;;;;;;13.89;51.10;99923.28;7002324;28;20214;-79
2024/02/03 14:11:46;;;;;;;1.90;1.73;;;;;;;14.43;50.56;99935.06;7001878;28;20364;-80
2024/02/03 14:15:09;;;;;;;1.23;1.23;;;;;;;14.34;50.37;99905.59;6993739;28;20265;-81
2024/02/03 14:18:31;;;;;;;1.77;1.67;;;;;;;14.76;49.75;99927.03;7001313;28;20413;-81
2024/02/03 14:21:53;;;;;;;2.47;1.50;;;;;;;14.77;49.64;99923.28;7001998;28;20317;-81
2024/02/03 14:25:17;;;;;;;1.80;1.70;;;;;;;15.06;49.11;99920.22;7004261;28;20246;-81
2024/02/03 14:28:39;;;;;;;1.50;1.50;;;;;;;14.89;48.94;99881.75;7002500;28;20207;-81
2024/02/03 14:32:00;;;;;;;2.10;2.00;;;;;;;14.94;48.96;99902.84;7000378;28;20217;-81
2024/02/03 14:35:22;;;;;;;1.67;1.57;;;;;;;14.53;49.40;99904.84;6999905;28;20204;-81
2024/02/03 14:38:45;;;;;;;1.70;1.60;;;;;;;14.36;50.35;99925.22;6990797;28;20667;-81
2024/02/03 14:42:08;;;;;;;1.73;1.63;;;;;;;14.84;49.50;99918.69;6996281;28;20216;-81
2024/02/03 14:45:30;;;;;;;1.43;1.33;;;;;;;14.95;49.04;99920.81;6994000;28;20681;-80
2024/02/03 14:48:51;;;;;;;1.30;1.30;;;;;;;14.64;49.79;99926.78;7002751;28;20205;-81
2024/02/03 14:52:13;;;;;;;1.40;1.30;;;;;;;14.91;49.06;99922.25;6998138;28;20721;-81
2024/02/03 14:55:34;;;;;;;1.50;1.40;;;;;;;14.80;48.74;99921.00;7002331;28;20271;-81
2024/02/03 14:58:57;;;;;;;1.50;1.40;;;;;;;14.97;49.05;99916.00;7001881;28;20250;-81
2024/02/03 15:02:19;;;;;;;1.70;1.60;;;;;;;14.95;49.34;99927.09;6998840;28;20226;-81
2024/02/03 15:05:40;;;;;;;3.27;1.90;;;;;;;15.12;48.29;99922.94;6975419;28;20226;-80
2024/02/03 15:09:11;;;;;;;1.97;1.87;;;;;;;15.15;48.02;99908.13;7000571;28;20242;-81
2024/02/03 15:12:34;;;;;;;2.20;2.00;;;;;;;14.72;47.43;99855.19;7002577;28;20290;-80
2024/02/03 15:15:57;;;;;;;1.87;1.50;;;;;;;14.76;48.40;99911.56;6997474;28;20234;-80
2024/02/03 15:19:19;;;;;;;2.00;1.90;;;;;;;15.29;47.77;99907.06;6998780;28;20969;-80
2024/02/03 15:22:40;;;;;;;2.17;2.07;;;;;;;15.23;47.59;99913.34;6978778;28;20279;-79
2024/02/03 15:26:02;;;;;;;1.80;1.70;;;;;;;15.26;47.19;99899.31;7001452;28;20329;-81
2024/02/03 15:29:23;;;;;;;4.07;1.70;;;;;;;15.30;47.35;99903.31;7001370;28;20237;-80
2024/02/03 15:32:46;;;;;;;1.60;1.50;;;;;;;15.02;47.64;99895.34;7001312;28;20246;-80
2024/02/03 15:36:08;;;;;;;1.80;1.70;;;;;;;15.04;47.90;99901.41;7001317;28;20809;-79
2024/02/03 15:39:29;;;;;;;1.47;1.40;;;;;;;14.90;48.01;99907.88;7016209;28;20237;-79
2024/02/03 15:42:51;;;;;;;1.93;1.83;;;;;;;14.92;48.56;99910.38;7005012;28;20293;-79
2024/02/03 15:46:13;;;;;;;2.57;1.70;;;;;;;15.00;48.16;99902.03;7001100;28;20291;-79